sensor_id;sensor_type;location;lat;lon;timestamp;pressure;altitude;pressure_sealevel;temperature;humidity
19128;BME280;9696;53.686;10.094;2022-10-31T00:01:39;101680.00;;;11.26;100.00
19128;BME280;9696;53.686;10.094;2022-10-31T00:04:08;101680.69;;;11.17;100.00
19128;BME280;9696;53.686;10.094;2022-10-31T00:06:37;101680.47;;;11.20;100.00
19128;BME280;9696;53.686;10.094;2022-10-31T00:09:06;101678.19;;;11.26;100.00
19128;BME280;9696;53.686;10.094;2022-10-31T00:11:35;101679.09;;;11.14;100.00
19128;BME280;9696;53.686;10.094;2022-10-31T00:14:04;101686.03;;;11.15;100.00
19128;BME280;9696;53.686;10.094;2022-10-31T00:16:35;101696.84;;;11.34;100.00
19128;BME280;9696;53.686;10.094;2022-10-31T00:19:06;101690.91;;;11.32;100.00
19128;BME280;9696;53.686;10.094;2022-10-31T00:21:35;101686.50;;;11.33;100.00
19128;BME280;9696;53.686;10.094;2022-10-31T00:24:05;101695.13;;;11.22;100.00
19128;BME280;9696;53.686;10.094;2022-10-31T00:26:34;101696.69;;;11.14;100.00
19128;BME280;9696;53.686;10.094;2022-10-31T00:29:03;101701.13;;;11.01;100.00
19128;BME280;9696;53.686;10.094;2022-10-31T00:31:33;101691.63;;;11.11;100.00
19128;BME280;9696;53.686;10.094;2022-10-31T00:34:02;101699.56;;;11.22;100.00
19128;BME280;9696;53.686;10.094;2022-10-31T00:36:31;101695.75;;;11.26;100.00
19128;BME280;9696;53.686;10.094;2022-10-31T00:39:00;101697.38;;;11.16;100.00
19128;BME280;9696;53.686;10.094;2022-10-31T00:41:29;101704.03;;;11.09;100.00
19128;BME280;9696;53.686;10.094;2022-10-31T00:43:58;101703.44;;;11.05;100.00
19128;BME280;9696;53.686;10.094;2022-10-31T00:46:27;101704.72;;;11.00;100.00
19128;BME280;9696;53.686;10.094;2022-10-31T00:48:58;101706.66;;;11.09;100.00
19128;BME280;9696;53.686;10.094;2022-10-31T00:51:27;101705.72;;;11.10;100.00
19128;BME280;9696;53.686;10.094;2022-10-31T00:53:56;101695.09;;;10.87;100.00
19128;BME280;9696;53.686;10.094;2022-10-31T00:56:25;101694.66;;;10.70;100.00
19128;BME280;9696;53.686;10.094;2022-10-31T00:58:54;101691.34;;;10.79;100.00
19128;BME280;9696;53.686;10.094;2022-10-31T01:01:23;101685.56;;;10.50;100.00
19128;BME280;9696;53.686;10.094;2022-10-31T01:03:52;101696.84;;;10.27;100.00
19128;BME280;9696;53.686;10.094;2022-10-31T01:06:23;101693.22;;;10.53;100.00
19128;BME280;9696;53.686;10.094;2022-10-31T01:08:52;101700.28;;;10.76;100.00
19128;BME280;9696;53.686;10.094;2022-10-31T01:11:22;101697.13;;;10.71;100.00
19128;BME280;9696;53.686;10.094;2022-10-31T01:13:52;101699.34;;;10.77;100.00
19128;BME280;9696;53.686;10.094;2022-10-31T01:16:24;101700.19;;;10.78;100.00
19128;BME280;9696;53.686;10.094;2022-10-31T01:18:53;101704.00;;;10.61;100.00
19128;BME280;9696;53.686;10.094;2022-10-31T01:21:25;101709.88;;;10.65;100.00
19128;BME280;9696;53.686;10.094;2022-10-31T01:23:58;101717.13;;;10.61;100.00
19128;BME280;9696;53.686;10.094;2022-10-31T01:26:31;101709.25;;;10.61;100.00
19128;BME280;9696;53.686;10.094;2022-10-31T01:29:03;101714.78;;;10.69;100.00
19128;BME280;9696;53.686;10.094;2022-10-31T01:31:35;101715.47;;;10.84;100.00
19128;BME280;9696;53.686;10.094;2022-10-31T01:34:05;101721.81;;;11.05;100.00
19128;BME280;9696;53.686;10.094;2022-10-31T01:36:38;101721.78;;;10.81;100.00
19128;BME280;9696;53.686;10.094;2022-10-31T01:39:09;101730.28;;;10.85;100.00
19128;BME280;9696;53.686;10.094;2022-10-31T01:41:40;101737.28;;;10.97;100.00
19128;BME280;9696;53.686;10.094;2022-10-31T01:47:15;101734.47;;;11.11;100.00
19128;BME280;9696;53.686;10.094;2022-10-31T01:49:48;101740.31;;;11.27;100.00
19128;BME280;9696;53.686;10.094;2022-10-31T01:52:21;101733.22;;;11.17;100.00
19128;BME280;9696;53.686;10.094;2022-10-31T01:54:56;101742.59;;;11.32;100.00
19128;BME280;9696;53.686;10.094;2022-10-31T01:57:27;101743.88;;;11.26;100.00
19128;BME280;9696;53.686;10.094;2022-10-31T01:59:59;101742.41;;;11.22;100.00
19128;BME280;9696;53.686;10.094;2022-10-31T02:02:40;101749.97;;;11.27;100.00
19128;BME280;9696;53.686;10.094;2022-10-31T02:05:14;101750.47;;;11.32;100.00
19128;BME280;9696;53.686;10.094;2022-10-31T02:07:51;101758.25;;;11.33;100.00
19128;BME280;9696;53.686;10.094;2022-10-31T02:10:27;101757.00;;;11.50;100.00
19128;BME280;9696;53.686;10.094;2022-10-31T02:13:00;101753.00;;;11.68;100.00
19128;BME280;9696;53.686;10.094;2022-10-31T02:15:31;101755.94;;;11.53;100.00
19128;BME280;9696;53.686;10.094;2022-10-31T02:18:01;101758.84;;;11.61;100.00
19128;BME280;9696;53.686;10.094;2022-10-31T02:20:33;101750.53;;;11.78;100.00
19128;BME280;9696;53.686;10.094;2022-10-31T02:26:37;101764.56;;;11.90;100.00
19128;BME280;9696;53.686;10.094;2022-10-31T02:29:43;101768.25;;;11.76;100.00
19128;BME280;9696;53.686;10.094;2022-10-31T02:32:24;101766.47;;;11.76;100.00
19128;BME280;9696;53.686;10.094;2022-10-31T02:35:00;101778.06;;;11.85;100.00
19128;BME280;9696;53.686;10.094;2022-10-31T02:37:36;101766.47;;;11.76;100.00
19128;BME280;9696;53.686;10.094;2022-10-31T02:40:13;101777.59;;;11.91;100.00
19128;BME280;9696;53.686;10.094;2022-10-31T02:43:09;101774.97;;;11.91;100.00
19128;BME280;9696;53.686;10.094;2022-10-31T02:45:50;101777.03;;;11.99;100.00
19128;BME280;9696;53.686;10.094;2022-10-31T02:48:28;101787.53;;;11.99;100.00
19128;BME280;9696;53.686;10.094;2022-10-31T02:50:59;101780.84;;;12.06;100.00
19128;BME280;9696;53.686;10.094;2022-10-31T02:53:32;101781.13;;;12.14;100.00
19128;BME280;9696;53.686;10.094;2022-10-31T02:56:04;101778.72;;;12.11;100.00
19128;BME280;9696;53.686;10.094;2022-10-31T02:58:38;101774.75;;;12.05;100.00
19128;BME280;9696;53.686;10.094;2022-10-31T03:04:27;101777.38;;;12.05;100.00
19128;BME280;9696;53.686;10.094;2022-10-31T03:07:02;101783.72;;;12.03;100.00
19128;BME280;9696;53.686;10.094;2022-10-31T03:09:37;101788.03;;;12.04;100.00
19128;BME280;9696;53.686;10.094;2022-10-31T03:12:14;101788.75;;;12.06;100.00
19128;BME280;9696;53.686;10.094;2022-10-31T03:14:51;101799.97;;;11.97;100.00
19128;BME280;9696;53.686;10.094;2022-10-31T03:17:25;101796.84;;;11.92;100.00
19128;BME280;9696;53.686;10.094;2022-10-31T03:19:58;101795.66;;;11.96;100.00
19128;BME280;9696;53.686;10.094;2022-10-31T03:22:31;101802.22;;;11.90;100.00
19128;BME280;9696;53.686;10.094;2022-10-31T03:25:03;101796.47;;;11.85;100.00
19128;BME280;9696;53.686;10.094;2022-10-31T03:27:34;101806.50;;;11.80;100.00
19128;BME280;9696;53.686;10.094;2022-10-31T03:30:06;101798.63;;;11.91;100.00
19128;BME280;9696;53.686;10.094;2022-10-31T03:32:52;101808.88;;;11.83;100.00
19128;BME280;9696;53.686;10.094;2022-10-31T03:35:25;101817.75;;;11.69;100.00
19128;BME280;9696;53.686;10.094;2022-10-31T03:37:56;101815.25;;;11.68;100.00
19128;BME280;9696;53.686;10.094;2022-10-31T03:40:36;101818.94;;;11.65;100.00
19128;BME280;9696;53.686;10.094;2022-10-31T03:43:10;101813.06;;;11.62;100.00
19128;BME280;9696;53.686;10.094;2022-10-31T03:45:45;101815.41;;;11.54;100.00
19128;BME280;9696;53.686;10.094;2022-10-31T03:48:17;101833.47;;;11.58;100.00
19128;BME280;9696;53.686;10.094;2022-10-31T03:50:51;101830.47;;;11.52;100.00
19128;BME280;9696;53.686;10.094;2022-10-31T03:53:26;101835.63;;;11.53;100.00
19128;BME280;9696;53.686;10.094;2022-10-31T03:56:02;101833.00;;;11.53;100.00
19128;BME280;9696;53.686;10.094;2022-10-31T03:58:35;101841.34;;;11.58;100.00
19128;BME280;9696;53.686;10.094;2022-10-31T04:01:09;101837.16;;;11.56;100.00
19128;BME280;9696;53.686;10.094;2022-10-31T04:03:40;101840.59;;;11.69;100.00
19128;BME280;9696;53.686;10.094;2022-10-31T04:06:14;101852.34;;;11.76;100.00
19128;BME280;9696;53.686;10.094;2022-10-31T04:08:49;101849.16;;;11.84;100.00
19128;BME280;9696;53.686;10.094;2022-10-31T04:11:23;101848.44;;;11.81;100.00
19128;BME280;9696;53.686;10.094;2022-10-31T04:14:12;101848.50;;;11.93;100.00
19128;BME280;9696;53.686;10.094;2022-10-31T04:16:43;101849.94;;;11.97;100.00
19128;BME280;9696;53.686;10.094;2022-10-31T04:19:13;101856.66;;;12.01;100.00
19128;BME280;9696;53.686;10.094;2022-10-31T04:21:44;101861.06;;;12.00;100.00
19128;BME280;9696;53.686;10.094;2022-10-31T04:24:13;101861.91;;;12.01;100.00
19128;BME280;9696;53.686;10.094;2022-10-31T04:26:42;101857.63;;;12.11;100.00
19128;BME280;9696;53.686;10.094;2022-10-31T04:29:11;101857.63;;;12.11;100.00
19128;BME280;9696;53.686;10.094;2022-10-31T04:31:40;101858.34;;;12.13;100.00
19128;BME280;9696;53.686;10.094;2022-10-31T04:34:09;101860.16;;;12.12;100.00
19128;BME280;9696;53.686;10.094;2022-10-31T04:36:38;101862.56;;;12.15;100.00
19128;BME280;9696;53.686;10.094;2022-10-31T04:39:09;101873.78;;;12.17;100.00
19128;BME280;9696;53.686;10.094;2022-10-31T04:41:44;101859.69;;;12.18;100.00
19128;BME280;9696;53.686;10.094;2022-10-31T04:44:16;101858.75;;;12.19;100.00
19128;BME280;9696;53.686;10.094;2022-10-31T04:46:49;101855.16;;;12.20;100.00
19128;BME280;9696;53.686;10.094;2022-10-31T04:49:18;101860.28;;;12.22;100.00
19128;BME280;9696;53.686;10.094;2022-10-31T04:51:47;101872.59;;;12.21;100.00
19128;BME280;9696;53.686;10.094;2022-10-31T04:54:18;101876.91;;;12.22;100.00
19128;BME280;9696;53.686;10.094;2022-10-31T04:57:16;101872.72;;;12.20;100.00
19128;BME280;9696;53.686;10.094;2022-10-31T04:59:45;101876.91;;;12.22;100.00
19128;BME280;9696;53.686;10.094;2022-10-31T05:02:14;101864.59;;;12.23;100.00
19128;BME280;9696;53.686;10.094;2022-10-31T05:04:50;101869.75;;;12.24;100.00
19128;BME280;9696;53.686;10.094;2022-10-31T05:07:19;101868.91;;;12.24;100.00
19128;BME280;9696;53.686;10.094;2022-10-31T05:09:49;101872.25;;;12.26;100.00
19128;BME280;9696;53.686;10.094;2022-10-31T05:12:19;101870.56;;;12.25;100.00
19128;BME280;9696;53.686;10.094;2022-10-31T05:15:07;101875.03;;;12.24;100.00
19128;BME280;9696;53.686;10.094;2022-10-31T05:17:55;101870.56;;;12.25;100.00
19128;BME280;9696;53.686;10.094;2022-10-31T05:20:54;101864.50;;;12.24;100.00
19128;BME280;9696;53.686;10.094;2022-10-31T05:23:49;101876.69;;;12.25;100.00
19128;BME280;9696;53.686;10.094;2022-10-31T05:26:19;101874.88;;;12.26;100.00
19128;BME280;9696;53.686;10.094;2022-10-31T05:28:48;101880.16;;;12.26;100.00
19128;BME280;9696;53.686;10.094;2022-10-31T05:31:17;101872.41;;;12.24;100.00
19128;BME280;9696;53.686;10.094;2022-10-31T05:33:48;101876.81;;;12.24;100.00
19128;BME280;9696;53.686;10.094;2022-10-31T05:36:35;101865.31;;;12.25;100.00
19128;BME280;9696;53.686;10.094;2022-10-31T05:39:11;101872.41;;;12.24;100.00
19128;BME280;9696;53.686;10.094;2022-10-31T05:41:44;101875.13;;;12.23;100.00
19128;BME280;9696;53.686;10.094;2022-10-31T05:44:22;101877.66;;;12.24;100.00
19128;BME280;9696;53.686;10.094;2022-10-31T05:47:07;101873.34;;;12.23;100.00
19128;BME280;9696;53.686;10.094;2022-10-31T05:50:09;101888.19;;;12.24;100.00
19128;BME280;9696;53.686;10.094;2022-10-31T05:52:55;101883.03;;;12.23;100.00
19128;BME280;9696;53.686;10.094;2022-10-31T05:55:32;101877.00;;;12.21;100.00
19128;BME280;9696;53.686;10.094;2022-10-31T05:58:11;101875.13;;;12.23;100.00
19128;BME280;9696;53.686;10.094;2022-10-31T06:00:45;101865.56;;;12.22;100.00
19128;BME280;9696;53.686;10.094;2022-10-31T06:03:15;101869.97;;;12.21;100.00
19128;BME280;9696;53.686;10.094;2022-10-31T06:05:56;101869.25;;;12.19;100.00
19128;BME280;9696;53.686;10.094;2022-10-31T06:08:30;101878.19;;;12.17;100.00
19128;BME280;9696;53.686;10.094;2022-10-31T06:11:03;101880.72;;;12.18;100.00
19128;BME280;9696;53.686;10.094;2022-10-31T06:13:52;101888.72;;;12.17;100.00
19128;BME280;9696;53.686;10.094;2022-10-31T06:16:30;101888.63;;;12.18;100.00
19128;BME280;9696;53.686;10.094;2022-10-31T06:19:11;101893.97;;;12.17;100.00
19128;BME280;9696;53.686;10.094;2022-10-31T06:21:41;101900.94;;;12.18;100.00
19128;BME280;9696;53.686;10.094;2022-10-31T06:24:10;101894.97;;;12.16;100.00
19128;BME280;9696;53.686;10.094;2022-10-31T06:26:58;101903.78;;;12.15;100.00
19128;BME280;9696;53.686;10.094;2022-10-31T06:29:29;101915.03;;;12.17;100.00
19128;BME280;9696;53.686;10.094;2022-10-31T06:32:03;101919.47;;;12.16;100.00
19128;BME280;9696;53.686;10.094;2022-10-31T06:34:37;101920.28;;;12.17;100.00
19128;BME280;9696;53.686;10.094;2022-10-31T06:37:08;101907.97;;;12.17;100.00
19128;BME280;9696;53.686;10.094;2022-10-31T06:39:39;101902.94;;;12.14;100.00
19128;BME280;9696;53.686;10.094;2022-10-31T06:42:10;101908.31;;;12.13;100.00
19128;BME280;9696;53.686;10.094;2022-10-31T06:44:41;101905.34;;;12.17;100.00
19128;BME280;9696;53.686;10.094;2022-10-31T06:47:35;101918.72;;;12.14;100.00
19128;BME280;9696;53.686;10.094;2022-10-31T06:50:29;101923.28;;;12.12;100.00
19128;BME280;9696;53.686;10.094;2022-10-31T06:52:58;101933.25;;;12.20;100.00
19128;BME280;9696;53.686;10.094;2022-10-31T06:55:28;101931.66;;;12.17;100.00
19128;BME280;9696;53.686;10.094;2022-10-31T06:57:59;101933.44;;;12.17;100.00
19128;BME280;9696;53.686;10.094;2022-10-31T07:00:32;101943.03;;;12.18;100.00
19128;BME280;9696;53.686;10.094;2022-10-31T07:03:06;101939.25;;;12.09;100.00
19128;BME280;9696;53.686;10.094;2022-10-31T07:05:36;101945.97;;;12.13;100.00
19128;BME280;9696;53.686;10.094;2022-10-31T07:08:07;101950.53;;;12.11;100.00
19128;BME280;9696;53.686;10.094;2022-10-31T07:10:38;101962.75;;;12.12;100.00
19128;BME280;9696;53.686;10.094;2022-10-31T07:13:11;101961.66;;;12.15;100.00
19128;BME280;9696;53.686;10.094;2022-10-31T07:15:44;101964.63;;;12.10;100.00
19128;BME280;9696;53.686;10.094;2022-10-31T07:18:13;101962.84;;;12.11;100.00
19128;BME280;9696;53.686;10.094;2022-10-31T07:20:43;101955.28;;;12.06;100.00
19128;BME280;9696;53.686;10.094;2022-10-31T07:23:13;101966.41;;;12.10;100.00
19128;BME280;9696;53.686;10.094;2022-10-31T07:25:46;101968.00;;;12.12;100.00
19128;BME280;9696;53.686;10.094;2022-10-31T07:28:19;101969.28;;;12.07;100.00
19128;BME280;9696;53.686;10.094;2022-10-31T07:30:53;101978.53;;;12.12;100.00
19128;BME280;9696;53.686;10.094;2022-10-31T07:33:23;101975.47;;;12.06;100.00
19128;BME280;9696;53.686;10.094;2022-10-31T07:36:13;101986.22;;;12.03;100.00
19128;BME280;9696;53.686;10.094;2022-10-31T07:38:45;101978.00;;;12.07;100.00
19128;BME280;9696;53.686;10.094;2022-10-31T07:41:14;101976.84;;;12.11;100.00
19128;BME280;9696;53.686;10.094;2022-10-31T07:43:45;101980.06;;;12.15;100.00
19128;BME280;9696;53.686;10.094;2022-10-31T07:46:18;101982.03;;;12.00;100.00
19128;BME280;9696;53.686;10.094;2022-10-31T07:49:05;101987.91;;;12.04;100.00
19128;BME280;9696;53.686;10.094;2022-10-31T07:51:53;101985.38;;;12.02;100.00
19128;BME280;9696;53.686;10.094;2022-10-31T07:54:24;101980.03;;;12.04;100.00
19128;BME280;9696;53.686;10.094;2022-10-31T07:56:54;101987.44;;;12.10;100.00
19128;BME280;9696;53.686;10.094;2022-10-31T07:59:23;101992.47;;;12.13;100.00
19128;BME280;9696;53.686;10.094;2022-10-31T08:01:55;101999.38;;;12.03;100.00
19128;BME280;9696;53.686;10.094;2022-10-31T08:04:47;101996.09;;;12.12;100.00
19128;BME280;9696;53.686;10.094;2022-10-31T08:07:36;101991.72;;;12.00;100.00
19128;BME280;9696;53.686;10.094;2022-10-31T08:10:11;101999.72;;;11.98;100.00
19128;BME280;9696;53.686;10.094;2022-10-31T08:12:40;101998.66;;;12.01;100.00
19128;BME280;9696;53.686;10.094;2022-10-31T08:15:10;101997.50;;;12.05;100.00
19128;BME280;9696;53.686;10.094;2022-10-31T08:17:40;101998.81;;;12.10;100.00
19128;BME280;9696;53.686;10.094;2022-10-31T08:20:11;102000.59;;;12.10;100.00
19128;BME280;9696;53.686;10.094;2022-10-31T08:22:53;101998.16;;;12.19;100.00
19128;BME280;9696;53.686;10.094;2022-10-31T08:25:23;101990.78;;;12.24;100.00
19128;BME280;9696;53.686;10.094;2022-10-31T08:27:54;101992.34;;;12.27;100.00
19128;BME280;9696;53.686;10.094;2022-10-31T08:30:29;101989.69;;;12.27;100.00
19128;BME280;9696;53.686;10.094;2022-10-31T08:33:20;102001.72;;;12.18;100.00
19128;BME280;9696;53.686;10.094;2022-10-31T08:36:08;101991.81;;;12.22;100.00
19128;BME280;9696;53.686;10.094;2022-10-31T08:38:57;101995.19;;;12.24;100.00
19128;BME280;9696;53.686;10.094;2022-10-31T08:41:29;101993.66;;;12.33;100.00
19128;BME280;9696;53.686;10.094;2022-10-31T08:44:00;101990.22;;;12.32;100.00
19128;BME280;9696;53.686;10.094;2022-10-31T08:46:29;101995.13;;;12.37;100.00
19128;BME280;9696;53.686;10.094;2022-10-31T08:49:00;101988.63;;;12.29;100.00
19128;BME280;9696;53.686;10.094;2022-10-31T08:51:29;101997.69;;;12.25;100.00
19128;BME280;9696;53.686;10.094;2022-10-31T08:53:58;102004.97;;;12.22;100.00
19128;BME280;9696;53.686;10.094;2022-10-31T08:56:33;102004.47;;;12.17;100.00
19128;BME280;9696;53.686;10.094;2022-10-31T08:59:07;101990.81;;;12.36;100.00
19128;BME280;9696;53.686;10.094;2022-10-31T09:02:07;101997.81;;;12.48;100.00
19128;BME280;9696;53.686;10.094;2022-10-31T09:04:37;102002.75;;;12.28;100.00
19128;BME280;9696;53.686;10.094;2022-10-31T09:07:07;102003.84;;;12.37;100.00
19128;BME280;9696;53.686;10.094;2022-10-31T09:09:51;102001.91;;;12.28;100.00
19128;BME280;9696;53.686;10.094;2022-10-31T09:12:20;101995.84;;;12.39;100.00
19128;BME280;9696;53.686;10.094;2022-10-31T09:15:08;101993.94;;;12.41;100.00
19128;BME280;9696;53.686;10.094;2022-10-31T09:17:46;101989.06;;;12.47;100.00
19128;BME280;9696;53.686;10.094;2022-10-31T09:20:39;101988.81;;;12.39;100.00
19128;BME280;9696;53.686;10.094;2022-10-31T09:23:11;101990.25;;;12.43;100.00
19128;BME280;9696;53.686;10.094;2022-10-31T09:25:41;101980.69;;;12.42;100.00
19128;BME280;9696;53.686;10.094;2022-10-31T09:28:33;101984.41;;;12.51;100.00
19128;BME280;9696;53.686;10.094;2022-10-31T09:31:11;101984.66;;;12.48;100.00
19128;BME280;9696;53.686;10.094;2022-10-31T09:33:55;101978.94;;;12.30;100.00
19128;BME280;9696;53.686;10.094;2022-10-31T09:36:45;101975.78;;;12.49;100.00
19128;BME280;9696;53.686;10.094;2022-10-31T09:39:19;101985.53;;;12.59;100.00
19128;BME280;9696;53.686;10.094;2022-10-31T09:42:09;101980.84;;;12.52;100.00
19128;BME280;9696;53.686;10.094;2022-10-31T09:44:51;101981.72;;;12.63;100.00
19128;BME280;9696;53.686;10.094;2022-10-31T09:47:37;101977.41;;;12.62;100.00
19128;BME280;9696;53.686;10.094;2022-10-31T09:50:40;101986.53;;;12.46;100.00
19128;BME280;9696;53.686;10.094;2022-10-31T09:53:51;101991.66;;;12.60;100.00
19128;BME280;9696;53.686;10.094;2022-10-31T09:56:24;101996.53;;;12.64;100.00
19128;BME280;9696;53.686;10.094;2022-10-31T09:58:59;102001.06;;;12.51;100.00
19128;BME280;9696;53.686;10.094;2022-10-31T10:01:42;102011.16;;;12.68;100.00
19128;BME280;9696;53.686;10.094;2022-10-31T10:04:29;102016.03;;;12.62;100.00
19128;BME280;9696;53.686;10.094;2022-10-31T10:07:37;102016.66;;;12.65;100.00
19128;BME280;9696;53.686;10.094;2022-10-31T10:10:33;102014.63;;;12.69;100.00
19128;BME280;9696;53.686;10.094;2022-10-31T10:13:28;102013.25;;;12.52;100.00
19128;BME280;9696;53.686;10.094;2022-10-31T10:16:16;102014.78;;;12.44;100.00
19128;BME280;9696;53.686;10.094;2022-10-31T10:18:58;102013.50;;;12.60;100.00
19128;BME280;9696;53.686;10.094;2022-10-31T10:21:39;102019.09;;;12.80;100.00
19128;BME280;9696;53.686;10.094;2022-10-31T10:24:25;102010.63;;;12.87;100.00
19128;BME280;9696;53.686;10.094;2022-10-31T10:27:10;102015.41;;;12.82;100.00
19128;BME280;9696;53.686;10.094;2022-10-31T10:29:53;102001.53;;;12.56;100.00
19128;BME280;9696;53.686;10.094;2022-10-31T10:32:28;102003.50;;;12.65;100.00
19128;BME280;9696;53.686;10.094;2022-10-31T10:35:01;102004.97;;;12.81;100.00
19128;BME280;9696;53.686;10.094;2022-10-31T10:37:32;102008.56;;;12.80;100.00
19128;BME280;9696;53.686;10.094;2022-10-31T10:40:11;102002.50;;;12.90;100.00
19128;BME280;9696;53.686;10.094;2022-10-31T10:42:45;102015.19;;;12.61;100.00
19128;BME280;9696;53.686;10.094;2022-10-31T10:45:37;102003.41;;;12.78;100.00
19128;BME280;9696;53.686;10.094;2022-10-31T10:48:32;102005.38;;;12.87;100.00
19128;BME280;9696;53.686;10.094;2022-10-31T10:51:08;101999.69;;;12.81;100.00
19128;BME280;9696;53.686;10.094;2022-10-31T10:54:09;101996.59;;;12.75;100.00
19128;BME280;9696;53.686;10.094;2022-10-31T10:56:51;101986.59;;;12.92;100.00
19128;BME280;9696;53.686;10.094;2022-10-31T10:59:24;101979.53;;;13.03;100.00
19128;BME280;9696;53.686;10.094;2022-10-31T11:01:54;101970.31;;;13.09;100.00
19128;BME280;9696;53.686;10.094;2022-10-31T11:04:31;101974.31;;;13.14;100.00
19128;BME280;9696;53.686;10.094;2022-10-31T11:07:02;101967.50;;;12.77;100.00
19128;BME280;9696;53.686;10.094;2022-10-31T11:09:32;101964.47;;;13.16;100.00
19128;BME280;9696;53.686;10.094;2022-10-31T11:12:05;101967.09;;;13.28;100.00
19128;BME280;9696;53.686;10.094;2022-10-31T11:14:44;101961.38;;;13.34;100.00
19128;BME280;9696;53.686;10.094;2022-10-31T11:17:22;101965.66;;;13.23;99.72
19128;BME280;9696;53.686;10.094;2022-10-31T11:20:02;101961.59;;;13.53;98.81
19128;BME280;9696;53.686;10.094;2022-10-31T11:22:32;101962.69;;;13.50;98.37
19128;BME280;9696;53.686;10.094;2022-10-31T11:25:11;101956.88;;;13.67;97.36
19128;BME280;9696;53.686;10.094;2022-10-31T11:27:40;101958.00;;;13.32;100.00
19128;BME280;9696;53.686;10.094;2022-10-31T11:30:13;101964.00;;;13.45;99.92
19128;BME280;9696;53.686;10.094;2022-10-31T11:32:46;101961.59;;;13.53;100.00
19128;BME280;9696;53.686;10.094;2022-10-31T11:35:18;101952.69;;;13.76;98.55
19128;BME280;9696;53.686;10.094;2022-10-31T11:37:50;101947.66;;;14.48;95.22
19128;BME280;9696;53.686;10.094;2022-10-31T11:40:23;101940.50;;;15.71;86.72
19128;BME280;9696;53.686;10.094;2022-10-31T11:42:55;101940.25;;;15.44;87.01
19128;BME280;9696;53.686;10.094;2022-10-31T11:45:32;101939.38;;;14.73;90.06
19128;BME280;9696;53.686;10.094;2022-10-31T11:48:12;101930.00;;;15.20;90.70
19128;BME280;9696;53.686;10.094;2022-10-31T11:50:48;101947.69;;;14.99;88.18
19128;BME280;9696;53.686;10.094;2022-10-31T11:53:22;101945.59;;;14.93;89.22
19128;BME280;9696;53.686;10.094;2022-10-31T11:56:03;101940.03;;;15.26;86.75
19128;BME280;9696;53.686;10.094;2022-10-31T11:58:33;101945.22;;;15.68;86.68
19128;BME280;9696;53.686;10.094;2022-10-31T12:01:03;101948.75;;;14.87;87.15
19128;BME280;9696;53.686;10.094;2022-10-31T12:03:42;101954.91;;;14.35;89.93
19128;BME280;9696;53.686;10.094;2022-10-31T12:06:16;101940.16;;;14.00;91.69
19128;BME280;9696;53.686;10.094;2022-10-31T12:08:47;101940.38;;;14.08;92.53
19128;BME280;9696;53.686;10.094;2022-10-31T12:11:31;101938.47;;;13.99;91.86
19128;BME280;9696;53.686;10.094;2022-10-31T12:14:15;101929.84;;;13.97;92.13
19128;BME280;9696;53.686;10.094;2022-10-31T12:16:53;101923.63;;;14.19;90.98
19128;BME280;9696;53.686;10.094;2022-10-31T12:19:36;101923.34;;;14.33;89.88
19128;BME280;9696;53.686;10.094;2022-10-31T12:22:13;101926.75;;;14.24;90.03
19128;BME280;9696;53.686;10.094;2022-10-31T12:24:54;101928.44;;;14.25;88.84
19128;BME280;9696;53.686;10.094;2022-10-31T12:27:35;101923.53;;;14.21;90.26
19128;BME280;9696;53.686;10.094;2022-10-31T12:30:14;101916.09;;;14.46;89.66
19128;BME280;9696;53.686;10.094;2022-10-31T12:32:56;101915.44;;;14.54;88.12
19128;BME280;9696;53.686;10.094;2022-10-31T12:35:40;101907.41;;;14.55;88.98
19128;BME280;9696;53.686;10.094;2022-10-31T12:38:28;101894.13;;;14.25;89.42
19128;BME280;9696;53.686;10.094;2022-10-31T12:41:12;101903.31;;;14.42;89.46
19128;BME280;9696;53.686;10.094;2022-10-31T12:43:48;101906.06;;;14.40;90.35
19128;BME280;9696;53.686;10.094;2022-10-31T12:46:34;101909.41;;;14.42;89.86
19128;BME280;9696;53.686;10.094;2022-10-31T12:49:19;101902.41;;;15.13;86.65
19128;BME280;9696;53.686;10.094;2022-10-31T12:51:57;101899.91;;;15.12;86.79
19128;BME280;9696;53.686;10.094;2022-10-31T12:54:49;101904.06;;;15.04;88.01
19128;BME280;9696;53.686;10.094;2022-10-31T12:57:26;101907.06;;;15.30;85.88
19128;BME280;9696;53.686;10.094;2022-10-31T12:59:59;101898.91;;;15.03;88.93
19128;BME280;9696;53.686;10.094;2022-10-31T13:02:33;101900.13;;;14.99;87.23
19128;BME280;9696;53.686;10.094;2022-10-31T13:05:16;101892.22;;;14.99;87.52
19128;BME280;9696;53.686;10.094;2022-10-31T13:07:49;101891.19;;;15.21;87.04
19128;BME280;9696;53.686;10.094;2022-10-31T13:10:24;101890.53;;;15.28;87.98
19128;BME280;9696;53.686;10.094;2022-10-31T13:12:58;101890.19;;;15.12;87.53
19128;BME280;9696;53.686;10.094;2022-10-31T13:15:35;101889.56;;;14.69;89.47
19128;BME280;9696;53.686;10.094;2022-10-31T13:18:15;101888.53;;;14.81;89.67
19128;BME280;9696;53.686;10.094;2022-10-31T13:20:49;101880.41;;;15.03;88.59
19128;BME280;9696;53.686;10.094;2022-10-31T13:23:27;101885.69;;;15.03;89.12
19128;BME280;9696;53.686;10.094;2022-10-31T13:26:35;101890.16;;;14.82;88.56
19128;BME280;9696;53.686;10.094;2022-10-31T13:29:12;101881.59;;;14.89;89.60
19128;BME280;9696;53.686;10.094;2022-10-31T13:31:45;101879.59;;;14.82;89.16
19128;BME280;9696;53.686;10.094;2022-10-31T13:34:23;101872.41;;;14.84;89.77
19128;BME280;9696;53.686;10.094;2022-10-31T13:37:00;101872.34;;;14.74;89.36
19128;BME280;9696;53.686;10.094;2022-10-31T13:39:41;101862.34;;;14.78;90.76